createdAt,value
2018-01-08T00:03:54.620Z,53.30
2018-01-08T00:08:57.218Z,53.20
2018-01-08T00:14:00.321Z,53.20
2018-01-08T00:19:03.336Z,53.20
2018-01-08T00:24:06.025Z,53.20
2018-01-08T00:29:09.338Z,53.90
2018-01-08T00:34:12.687Z,53.80
2018-01-08T00:39:15.311Z,53.20
2018-01-08T00:44:17.933Z,53.10
2018-01-08T00:49:20.506Z,53.20
2018-01-08T00:54:23.078Z,53.20
2018-01-08T00:59:25.734Z,53.20
2018-01-08T01:04:29.418Z,53.10
2018-01-08T01:09:32.033Z,53.10
2018-01-08T01:14:34.644Z,53.10
2018-01-08T01:19:37.245Z,53.00
2018-01-08T01:24:39.843Z,53.10
2018-01-08T01:29:42.406Z,52.90
2018-01-08T01:34:45.042Z,52.70
2018-01-08T01:39:47.677Z,52.70
2018-01-08T01:44:50.322Z,52.70
2018-01-08T01:49:53.694Z,53.50
2018-01-08T01:54:56.283Z,52.90
2018-01-08T01:59:58.867Z,53.00
2018-01-08T02:05:01.497Z,53.10
2018-01-08T02:10:05.043Z,53.20
2018-01-08T02:15:07.610Z,53.20
2018-01-08T02:20:10.204Z,53.90
2018-01-08T02:25:12.803Z,53.20
2018-01-08T02:30:15.571Z,53.20
2018-01-08T02:35:18.135Z,53.40
2018-01-08T02:40:20.713Z,53.60
2018-01-08T02:45:23.821Z,53.60
2018-01-08T02:50:27.306Z,53.80
2018-01-08T02:55:29.873Z,53.90
2018-01-08T03:00:32.508Z,53.80
2018-01-08T03:05:35.089Z,53.90
2018-01-08T03:10:39.030Z,54.00
2018-01-08T03:15:41.610Z,54.00
2018-01-08T03:20:44.217Z,54.00
2018-01-08T03:25:46.796Z,54.00
2018-01-08T03:30:49.714Z,54.10
2018-01-08T03:35:52.314Z,54.20
2018-01-08T03:40:54.880Z,54.30
2018-01-08T03:45:57.484Z,54.30
2018-01-08T03:51:00.045Z,54.40
2018-01-08T03:56:02.639Z,54.50
2018-01-08T04:01:05.259Z,54.60
2018-01-08T04:06:07.902Z,54.70
2018-01-08T04:11:10.496Z,54.80
2018-01-08T04:16:13.873Z,55.00
2018-01-08T04:21:16.973Z,55.00
2018-01-08T04:26:20.205Z,54.90
2018-01-08T04:31:24.327Z,55.70
2018-01-08T04:36:26.929Z,55.10
2018-01-08T04:41:29.607Z,55.10
2018-01-08T04:46:32.203Z,55.20
2018-01-08T04:51:34.817Z,55.20
2018-01-08T04:56:37.512Z,55.30
2018-01-08T05:01:40.115Z,55.30
2018-01-08T05:06:42.763Z,55.40
2018-01-08T05:11:45.349Z,55.50
2018-01-08T05:16:47.921Z,56.00
2018-01-08T05:21:50.558Z,55.70
2018-01-08T05:26:53.498Z,55.80
2018-01-08T05:31:56.699Z,55.80
2018-01-08T05:37:00.110Z,55.90
2018-01-08T05:42:02.679Z,55.90
2018-01-08T05:47:05.831Z,55.80
2018-01-08T05:52:09.189Z,56.00
2018-01-08T05:57:11.847Z,56.00
2018-01-08T06:02:15.239Z,56.00
2018-01-08T06:07:18.446Z,56.00
2018-01-08T06:12:21.067Z,56.00
2018-01-08T06:17:23.691Z,56.00
2018-01-08T06:22:26.274Z,56.10
2018-01-08T06:27:28.868Z,56.10
2018-01-08T06:32:31.589Z,56.20
2018-01-08T06:37:34.294Z,56.20
2018-01-08T06:42:36.872Z,56.30
2018-01-08T06:47:39.552Z,56.30
2018-01-08T06:52:42.296Z,56.40
2018-01-08T06:57:44.940Z,56.20
2018-01-08T07:02:48.464Z,56.40
2018-01-08T07:07:51.347Z,56.40
2018-01-08T07:12:53.950Z,56.40
2018-01-08T07:17:56.659Z,56.40
2018-01-08T07:22:59.270Z,56.90
2018-01-08T07:28:01.898Z,56.40
2018-01-08T07:33:04.551Z,56.40
2018-01-08T07:38:07.137Z,56.30
2018-01-08T07:43:10.564Z,56.50
2018-01-08T07:48:13.225Z,56.40
2018-01-08T07:53:15.830Z,56.50
2018-01-08T07:58:18.437Z,56.40
2018-01-08T08:03:21.122Z,56.50
2018-01-08T08:08:23.767Z,56.50
2018-01-08T08:13:27.229Z,56.40
2018-01-08T08:18:29.985Z,56.30
2018-01-08T08:23:32.606Z,55.70
2018-01-08T08:28:35.481Z,55.80
2018-01-08T08:33:39.471Z,55.80
2018-01-08T08:38:42.830Z,55.40
2018-01-08T08:43:45.439Z,55.30
2018-01-08T08:48:48.058Z,55.20
2018-01-08T08:53:50.637Z,55.10
2018-01-08T08:58:53.263Z,55.10
2018-01-08T09:03:55.921Z,54.90
2018-01-08T09:08:58.490Z,55.10
2018-01-08T09:14:01.111Z,55.10
2018-01-08T09:19:03.888Z,55.20
2018-01-08T09:24:06.617Z,55.30
2018-01-08T09:29:09.656Z,55.50
2018-01-08T09:34:12.276Z,55.40
2018-01-08T09:39:14.897Z,55.10
2018-01-08T09:44:17.488Z,55.10
2018-01-08T09:49:20.082Z,55.00
2018-01-08T09:54:22.700Z,55.10
2018-01-08T09:59:25.371Z,55.30
2018-01-08T10:04:39.765Z,55.60
2018-01-08T10:09:54.168Z,55.90
2018-01-08T10:15:09.452Z,56.30
2018-01-08T10:20:12.062Z,56.30
2018-01-08T10:25:14.655Z,56.20
2018-01-08T10:30:17.299Z,56.20
2018-01-08T10:35:19.991Z,56.30
2018-01-08T10:40:22.674Z,56.30
2018-01-08T10:45:31.027Z,56.20
2018-01-08T10:50:39.563Z,56.10
2018-01-08T10:55:42.428Z,56.10
2018-01-08T11:00:45.204Z,55.90
2018-01-08T11:05:48.585Z,55.70
2018-01-08T11:10:51.270Z,55.70
2018-01-08T11:15:53.858Z,55.70
2018-01-08T11:20:56.533Z,55.60
2018-01-08T11:25:59.115Z,55.50
2018-01-08T11:31:02.228Z,55.30
2018-01-08T11:36:05.366Z,55.30
2018-01-08T11:41:08.015Z,55.10
2018-01-08T11:46:10.608Z,55.20
2018-01-08T11:51:14.015Z,55.20
2018-01-08T11:56:17.386Z,55.40
2018-01-08T12:01:20.049Z,55.10
2018-01-08T12:06:22.986Z,55.10
2018-01-08T12:11:26.606Z,55.10
2018-01-08T12:16:29.195Z,55.00
2018-01-08T12:21:31.763Z,55.10
2018-01-08T12:26:34.326Z,55.20
2018-01-08T12:31:37.674Z,55.00
2018-01-08T12:36:41.011Z,54.90
2018-01-08T12:41:44.396Z,54.90
2018-01-08T12:46:46.981Z,54.90
2018-01-08T12:51:50.110Z,54.80
2018-01-08T12:56:52.732Z,54.50
2018-01-08T13:01:55.341Z,54.70
2018-01-08T13:06:57.915Z,54.60
2018-01-08T13:12:01.557Z,54.40
2018-01-08T13:17:04.227Z,54.40
2018-01-08T13:22:06.853Z,54.40
2018-01-08T13:27:09.487Z,54.50
2018-01-08T13:32:12.169Z,54.30
2018-01-08T13:37:14.872Z,54.60
2018-01-08T13:42:18.232Z,54.70
2018-01-08T13:47:20.808Z,54.70
2018-01-08T13:52:23.406Z,54.80
2018-01-08T13:57:26.041Z,54.90
2018-01-08T14:02:29.512Z,54.80
2018-01-08T14:07:32.087Z,54.80
2018-01-08T14:12:34.672Z,55.80
2018-01-08T14:17:38.034Z,55.20
2018-01-08T14:22:40.583Z,55.10
2018-01-08T14:27:44.002Z,55.20
2018-01-08T14:32:46.561Z,55.90
2018-01-08T14:37:49.759Z,56.90
2018-01-08T14:42:52.358Z,56.90
2018-01-08T14:47:55.001Z,56.80
2018-01-08T14:52:57.857Z,55.90
2018-01-08T14:58:00.469Z,55.10
2018-01-08T15:03:03.864Z,55.20
2018-01-08T15:08:07.001Z,55.20
2018-01-08T15:13:11.227Z,55.40
2018-01-08T15:18:13.805Z,55.30
2018-01-08T15:23:16.391Z,55.40
2018-01-08T15:28:19.015Z,55.50
2018-01-08T15:33:22.351Z,55.50
2018-01-08T15:38:25.000Z,55.80
2018-01-08T15:43:28.151Z,55.80
2018-01-08T15:48:30.755Z,55.10
2018-01-08T15:53:33.445Z,55.50
2018-01-08T15:58:36.800Z,55.60
2018-01-08T16:03:39.391Z,55.70
2018-01-08T16:08:42.136Z,55.90
2018-01-08T16:13:44.708Z,56.10
2018-01-08T16:18:47.310Z,56.10
2018-01-08T16:23:50.175Z,56.10
2018-01-08T16:28:52.872Z,56.20
2018-01-08T16:33:56.267Z,56.20
2018-01-08T16:38:58.861Z,56.30
2018-01-08T16:44:01.436Z,56.40
2018-01-08T16:49:04.673Z,56.40
2018-01-08T16:54:07.290Z,56.40
2018-01-08T16:59:09.916Z,56.40
2018-01-08T17:04:12.609Z,56.30
2018-01-08T17:09:15.246Z,55.90
2018-01-08T17:14:17.864Z,55.60
2018-01-08T17:19:20.467Z,55.60
2018-01-08T17:24:23.795Z,55.70
2018-01-08T17:29:27.915Z,55.80
2018-01-08T17:34:30.507Z,55.80
2018-01-08T17:39:33.237Z,55.80
2018-01-08T17:44:36.646Z,55.70
2018-01-08T17:49:39.360Z,55.60
2018-01-08T17:54:42.017Z,55.90
2018-01-08T17:59:44.649Z,55.90
2018-01-08T18:04:47.323Z,55.90
2018-01-08T18:09:49.996Z,55.20
2018-01-08T18:14:52.949Z,55.10
2018-01-08T18:19:55.551Z,55.00
2018-01-08T18:24:58.764Z,55.10
2018-01-08T18:30:01.377Z,55.20
2018-01-08T18:35:03.992Z,56.40
2018-01-08T18:40:06.626Z,56.00
2018-01-08T18:45:09.206Z,56.20
2018-01-08T18:50:11.836Z,56.50
2018-01-08T18:55:17.555Z,57.20
2018-01-08T19:00:20.174Z,57.20
2018-01-08T19:05:22.794Z,58.30
2018-01-08T19:10:25.413Z,58.20
2018-01-08T19:15:28.028Z,58.50
2018-01-08T19:20:30.702Z,58.90
2018-01-08T19:25:33.449Z,59.40
2018-01-08T19:30:36.047Z,59.70
2018-01-08T19:35:38.630Z,59.80
2018-01-08T19:40:41.252Z,59.90
2018-01-08T19:45:43.811Z,60.30
2018-01-08T19:50:46.468Z,60.30
2018-01-08T19:55:49.128Z,60.70
2018-01-08T20:00:51.726Z,60.80
2018-01-08T20:05:54.984Z,61.00
2018-01-08T20:10:59.176Z,61.40
2018-01-08T20:16:01.770Z,61.40
2018-01-08T20:21:05.408Z,61.40
2018-01-08T20:26:08.003Z,61.40
2018-01-08T20:31:10.603Z,61.50
2018-01-08T20:36:13.260Z,61.80
2018-01-08T20:41:15.888Z,61.80
2018-01-08T20:46:18.545Z,61.90
2018-01-08T20:51:21.192Z,61.70
2018-01-08T20:56:23.824Z,60.20
2018-01-08T21:01:26.544Z,58.60
2018-01-08T21:06:29.193Z,57.80
2018-01-08T21:11:31.766Z,57.20
2018-01-08T21:16:35.147Z,56.40
2018-01-08T21:21:39.229Z,55.90
2018-01-08T21:26:42.112Z,55.90
2018-01-08T21:31:45.446Z,55.20
2018-01-08T21:36:50.790Z,55.10
2018-01-08T21:41:55.549Z,55.00
2018-01-08T21:46:59.156Z,54.90
2018-01-08T21:52:02.183Z,54.80
2018-01-08T22:02:20.214Z,54.80
2018-01-08T22:07:28.555Z,54.80
2018-01-08T22:12:32.988Z,55.10
2018-01-08T22:17:36.342Z,55.70
2018-01-08T22:22:38.961Z,55.70
2018-01-08T22:27:41.587Z,55.90
2018-01-08T22:32:44.200Z,56.40
2018-01-08T22:37:46.998Z,56.60
2018-01-08T22:42:50.397Z,57.10
2018-01-08T22:47:53.027Z,57.00
2018-01-08T22:52:55.757Z,57.30
2018-01-08T22:57:58.416Z,57.60
2018-01-08T23:03:01.064Z,58.00
2018-01-08T23:08:03.675Z,58.20
2018-01-08T23:13:06.303Z,58.30
2018-01-08T23:18:09.118Z,58.40
2018-01-08T23:23:11.711Z,58.50
2018-01-08T23:28:14.319Z,58.80
2018-01-08T23:33:16.892Z,58.90
2018-01-08T23:38:19.525Z,59.00
2018-01-08T23:43:22.522Z,59.30
2018-01-08T23:48:26.545Z,59.30
2018-01-08T23:53:29.124Z,59.40
2018-01-08T23:58:31.709Z,59.50
